createdAt,value
2019-04-20T00:01:28.117Z,5.47
2019-04-20T00:03:50.580Z,6.20
2019-04-20T00:06:19.559Z,6.13
2019-04-20T00:08:47.572Z,6.30
2019-04-20T00:11:21.882Z,6.10
2019-04-20T00:13:54.920Z,5.27
2019-04-20T00:16:18.808Z,5.63
2019-04-20T00:18:53.110Z,6.27
2019-04-20T00:21:19.151Z,5.93
2019-04-20T00:23:48.609Z,6.37
2019-04-20T00:26:32.276Z,5.50
2019-04-20T00:29:06.965Z,5.70
2019-04-20T00:31:30.758Z,5.40
2019-04-20T00:33:55.887Z,5.93
2019-04-20T00:36:18.290Z,5.63
2019-04-20T00:38:51.208Z,5.77
2019-04-20T00:41:15.960Z,6.83
2019-04-20T00:43:42.554Z,5.60
2019-04-20T00:46:23.059Z,5.80
2019-04-20T00:48:50.481Z,6.50
2019-04-20T00:51:41.953Z,6.30
2019-04-20T00:53:47.891Z,6.30
2019-04-20T00:56:12.192Z,6.47
2019-04-20T00:58:51.950Z,5.43
2019-04-20T01:01:34.351Z,5.43
2019-04-20T01:03:52.289Z,6.50
2019-04-20T01:06:27.244Z,6.43
2019-04-20T01:08:38.683Z,6.53
2019-04-20T01:11:08.202Z,6.60
2019-04-20T01:13:42.150Z,6.22
2019-04-20T01:16:21.666Z,5.90
2019-04-20T01:18:37.795Z,6.03
2019-04-20T01:21:14.028Z,6.30
2019-04-20T01:23:44.063Z,6.80
2019-04-20T01:26:10.944Z,6.30
2019-04-20T01:28:46.780Z,6.25
2019-04-20T01:31:15.773Z,5.87
2019-04-20T01:33:48.465Z,6.43
2019-04-20T01:36:19.630Z,5.97
2019-04-20T01:38:49.836Z,6.07
2019-04-20T01:41:01.316Z,6.83
2019-04-20T01:43:31.239Z,6.75
2019-04-20T01:46:08.196Z,6.53
2019-04-20T01:48:34.045Z,6.60
2019-04-20T01:51:07.292Z,5.97
2019-04-20T01:53:46.981Z,6.80
2019-04-20T01:56:13.741Z,6.40
2019-04-20T01:58:47.484Z,5.78
2019-04-20T02:00:59.514Z,6.40
2019-04-20T02:03:36.952Z,6.27
2019-04-20T02:06:05.585Z,6.70
2019-04-20T02:08:32.741Z,6.13
2019-04-20T02:11:07.738Z,6.40
2019-04-20T02:13:36.179Z,7.07
2019-04-20T02:16:13.948Z,5.77
2019-04-20T02:18:42.101Z,6.80
2019-04-20T02:21:18.388Z,6.40
2019-04-20T02:23:42.860Z,6.47
2019-04-20T02:26:00.863Z,7.13
2019-04-20T02:28:58.981Z,7.10
2019-04-20T02:32:01.467Z,7.07
2019-04-20T02:34:03.817Z,7.62
2019-04-20T02:41:29.468Z,6.73
2019-04-20T02:44:16.036Z,6.70
2019-04-20T02:46:24.804Z,6.63
2019-04-20T02:49:06.065Z,5.90
2019-04-20T02:51:22.915Z,7.10
2019-04-20T02:54:00.458Z,5.93
2019-04-20T02:56:25.747Z,7.30
2019-04-20T02:58:57.115Z,6.40
2019-04-20T03:01:07.083Z,6.77
2019-04-20T03:03:22.783Z,6.47
2019-04-20T03:06:00.248Z,5.87
2019-04-20T03:13:51.682Z,6.40
2019-04-20T03:16:16.495Z,6.47
2019-04-20T03:18:40.930Z,6.77
2019-04-20T03:21:21.422Z,7.10
2019-04-20T03:23:47.985Z,7.23
2019-04-20T03:26:10.962Z,6.85
2019-04-20T03:28:37.308Z,7.75
2019-04-20T03:31:33.317Z,7.43
2019-04-20T03:34:09.778Z,7.10
2019-04-20T03:36:21.027Z,7.57
2019-04-20T03:38:38.450Z,8.50
2019-04-20T03:40:56.606Z,10.03
2019-04-20T03:43:13.839Z,9.67
2019-04-20T03:45:48.426Z,9.37
2019-04-20T03:48:32.234Z,8.77
2019-04-20T03:50:59.688Z,9.73
2019-04-20T03:53:29.877Z,9.83
2019-04-20T03:55:52.619Z,9.13
2019-04-20T03:58:24.114Z,9.60
2019-04-20T04:00:50.379Z,9.40
2019-04-20T04:03:31.824Z,8.60
2019-04-20T04:05:46.135Z,8.40
2019-04-20T04:08:10.657Z,10.20
2019-04-20T04:10:44.528Z,8.83
2019-04-20T04:12:56.803Z,8.25
2019-04-20T04:15:23.489Z,8.70
2019-04-20T04:17:51.439Z,8.53
2019-04-20T04:20:21.026Z,8.77
2019-04-20T04:23:08.317Z,8.50
2019-04-20T04:25:24.970Z,7.67
2019-04-20T04:28:01.343Z,7.87
2019-04-20T04:30:26.639Z,8.03
2019-04-20T04:33:25.056Z,7.80
2019-04-20T04:35:23.276Z,7.70
2019-04-20T04:37:57.051Z,7.03
2019-04-20T04:40:46.257Z,7.43
2019-04-20T04:43:04.313Z,7.90
2019-04-20T04:45:13.964Z,8.10
2019-04-20T04:47:39.027Z,7.73
2019-04-20T04:50:17.878Z,6.73
2019-04-20T04:52:52.192Z,7.37
2019-04-20T04:55:19.947Z,7.50
2019-04-20T04:57:37.075Z,7.83
2019-04-20T05:00:05.659Z,7.03
2019-04-20T05:02:39.319Z,7.00
2019-04-20T05:07:49.617Z,6.50
2019-04-20T05:10:05.736Z,7.07
2019-04-20T05:12:35.052Z,6.97
2019-04-20T05:15:10.217Z,6.17
2019-04-20T05:17:50.237Z,6.20
2019-04-20T05:20:18.120Z,6.20
2019-04-20T05:22:45.785Z,5.93
2019-04-20T05:25:21.555Z,6.80
2019-04-20T05:27:46.622Z,7.03
2019-04-20T05:29:57.015Z,6.27
2019-04-20T05:32:35.769Z,6.40
2019-04-20T05:35:23.697Z,7.07
2019-04-20T05:37:59.375Z,6.60
2019-04-20T05:40:22.696Z,6.93
2019-04-20T05:42:59.178Z,6.80
2019-04-20T05:45:24.929Z,7.27
2019-04-20T05:47:58.998Z,7.00
2019-04-20T05:50:31.669Z,6.90
2019-04-20T05:53:04.490Z,8.13
2019-04-20T05:55:33.077Z,6.55
2019-04-20T05:58:03.568Z,7.33
2019-04-20T06:00:34.240Z,6.77
2019-04-20T06:03:00.722Z,7.37
2019-04-20T06:05:38.001Z,7.10
2019-04-20T06:10:36.461Z,7.70
2019-04-20T06:13:00.549Z,7.33
2019-04-20T06:15:24.510Z,7.30
2019-04-20T06:17:53.203Z,7.20
2019-04-20T06:20:31.024Z,7.47
2019-04-20T06:23:05.553Z,7.33
2019-04-20T06:25:44.308Z,7.47
2019-04-20T06:27:58.081Z,7.10
2019-04-20T06:30:25.177Z,7.47
2019-04-20T06:33:07.843Z,6.47
2019-04-20T06:35:56.113Z,6.83
2019-04-20T06:38:03.135Z,7.00
2019-04-20T06:40:46.900Z,6.90
2019-04-20T06:42:59.977Z,6.97
2019-04-20T06:45:39.837Z,6.72
2019-04-20T06:48:01.016Z,7.27
2019-04-20T06:50:24.211Z,7.05
2019-04-20T06:52:46.291Z,7.07
2019-04-20T06:55:20.042Z,7.40
2019-04-20T06:57:52.875Z,7.07
2019-04-20T07:00:18.141Z,7.70
2019-04-20T07:05:24.810Z,7.07
2019-04-20T07:10:18.247Z,6.22
2019-04-20T07:12:43.619Z,6.63
2019-04-20T07:15:08.561Z,6.33
2019-04-20T07:20:11.594Z,6.10
2019-04-20T07:22:46.207Z,6.30
2019-04-20T07:25:14.255Z,7.13
2019-04-20T07:27:43.183Z,5.33
2019-04-20T07:30:10.236Z,5.63
2019-04-20T07:32:48.520Z,6.17
2019-04-20T07:35:08.766Z,6.13
2019-04-20T07:40:07.795Z,5.53
2019-04-20T07:42:35.241Z,5.27
2019-04-20T07:45:21.917Z,5.33
2019-04-20T07:52:06.249Z,4.80
2019-04-20T07:55:12.405Z,4.78
2019-04-20T07:57:21.639Z,4.43
2019-04-20T07:59:50.901Z,4.00
2019-04-20T08:02:32.392Z,4.20
2019-04-20T08:04:47.374Z,5.00
2019-04-20T08:09:35.217Z,4.50
2019-04-20T08:12:21.198Z,4.60
2019-04-20T08:14:50.690Z,4.87
2019-04-20T08:17:20.296Z,4.63
2019-04-20T08:19:41.072Z,4.30
2019-04-20T08:22:16.824Z,4.40
2019-04-20T08:24:37.752Z,4.67
2019-04-20T08:26:53.104Z,4.50
2019-04-20T08:32:31.288Z,4.67
2019-04-20T08:35:00.717Z,4.57
2019-04-20T08:37:21.176Z,4.93
2019-04-20T08:40:05.320Z,4.00
2019-04-20T08:42:30.712Z,4.67
2019-04-20T08:50:03.387Z,4.00
2019-04-20T08:52:53.670Z,4.67
2019-04-20T08:54:58.097Z,4.50
2019-04-20T08:57:07.000Z,4.70
2019-04-20T08:59:36.678Z,3.87
2019-04-20T09:02:10.321Z,4.65
2019-04-20T09:04:45.030Z,4.92
2019-04-20T09:07:16.146Z,4.37
2019-04-20T09:10:00.785Z,4.33
2019-04-20T09:12:24.410Z,4.73
2019-04-20T09:14:38.490Z,4.53
2019-04-20T09:17:08.005Z,4.60
2019-04-20T09:19:45.348Z,4.30
2019-04-20T09:22:16.196Z,4.30
2019-04-20T09:25:01.716Z,4.53
2019-04-20T09:27:18.378Z,4.03
2019-04-20T09:29:42.785Z,3.93
2019-04-20T09:35:01.101Z,4.30
2019-04-20T09:37:32.104Z,4.72
2019-04-20T09:40:03.441Z,3.70
2019-04-20T09:49:49.161Z,4.27
2019-04-20T09:52:16.963Z,3.70
2019-04-20T09:54:51.076Z,4.00
2019-04-20T09:57:22.788Z,3.90
2019-04-20T09:59:51.073Z,4.13
2019-04-20T10:02:05.506Z,3.97
2019-04-20T10:04:31.242Z,4.05
2019-04-20T10:07:07.893Z,4.10
2019-04-20T10:09:34.656Z,4.20
2019-04-20T10:16:57.992Z,3.92
2019-04-20T10:19:30.940Z,3.83
2019-04-20T10:21:55.085Z,4.37
2019-04-20T10:24:26.491Z,4.13
2019-04-20T10:26:55.079Z,3.77
2019-04-20T10:29:23.735Z,4.57
2019-04-20T10:31:58.547Z,4.43
2019-04-20T10:34:28.514Z,4.57
2019-04-20T10:36:55.689Z,4.37
2019-04-20T10:39:22.630Z,4.45
2019-04-20T10:41:54.479Z,4.53
2019-04-20T10:44:18.708Z,4.50
2019-04-20T10:46:46.928Z,4.00
2019-04-20T10:49:15.327Z,4.20
2019-04-20T10:51:42.356Z,4.60
2019-04-20T10:54:08.968Z,4.47
2019-04-20T10:56:37.058Z,4.07
2019-04-20T10:59:05.469Z,4.60
2019-04-20T11:01:33.667Z,4.27
2019-04-20T11:04:02.995Z,4.85
2019-04-20T11:06:29.909Z,3.90
2019-04-20T11:08:58.434Z,4.25
2019-04-20T11:11:28.664Z,4.43
2019-04-20T11:16:22.647Z,4.08
2019-04-20T11:21:17.387Z,5.27
2019-04-20T11:23:44.528Z,4.87
2019-04-20T11:26:11.485Z,4.10
2019-04-20T11:31:05.914Z,4.00
2019-04-20T11:33:32.602Z,4.47
2019-04-20T11:36:01.018Z,4.17
2019-04-20T11:38:28.232Z,4.77
2019-04-20T11:41:07.347Z,4.30
2019-04-20T11:43:23.993Z,4.50
2019-04-20T11:58:08.068Z,4.50
2019-04-20T12:00:42.296Z,4.65
2019-04-20T12:03:15.029Z,3.97
2019-04-20T12:05:38.092Z,4.63
2019-04-20T12:08:00.927Z,4.47
2019-04-20T12:10:29.565Z,3.70
2019-04-20T12:13:10.214Z,4.20
2019-04-20T12:15:38.914Z,4.15
2019-04-20T12:18:07.359Z,4.35
2019-04-20T12:20:34.605Z,3.83
2019-04-20T12:23:02.207Z,3.80
2019-04-20T12:25:32.542Z,4.40
2019-04-20T12:28:00.556Z,4.30
2019-04-20T12:30:27.959Z,4.65
2019-04-20T12:32:58.548Z,3.73
2019-04-20T12:35:24.490Z,3.80
2019-04-20T12:40:25.904Z,4.57
2019-04-20T12:42:59.233Z,3.80
2019-04-20T12:45:29.330Z,4.33
2019-04-20T12:47:57.311Z,4.60
2019-04-20T12:50:35.220Z,4.78
2019-04-20T12:55:38.908Z,3.93
2019-04-20T13:00:58.867Z,4.30
2019-04-20T13:03:29.759Z,4.15
2019-04-20T13:05:58.273Z,4.80
2019-04-20T13:08:36.945Z,3.90
2019-04-20T13:11:02.539Z,3.80
2019-04-20T13:13:30.460Z,4.20
2019-04-20T13:15:58.380Z,4.17
2019-04-20T13:21:01.713Z,4.00
2019-04-20T13:23:31.044Z,4.27
2019-04-20T13:25:59.183Z,3.73
2019-04-20T13:28:28.701Z,4.44
2019-04-20T13:30:59.760Z,4.30
2019-04-20T13:33:29.562Z,3.63
2019-04-20T13:36:04.097Z,4.00
2019-04-20T13:38:30.142Z,4.20
2019-04-20T13:41:06.064Z,4.50
2019-04-20T13:43:35.518Z,3.63
2019-04-20T13:46:02.888Z,3.83
2019-04-20T13:48:31.048Z,3.98
2019-04-20T13:51:02.356Z,4.12
2019-04-20T13:53:29.341Z,4.20
2019-04-20T13:58:31.576Z,4.20
2019-04-20T14:01:10.300Z,4.23
2019-04-20T14:03:36.935Z,4.30
2019-04-20T14:06:04.668Z,4.20
2019-04-20T14:08:34.144Z,3.60
2019-04-20T14:11:03.266Z,4.50
2019-04-20T14:13:40.594Z,4.07
2019-04-20T14:16:05.122Z,3.53
2019-04-20T14:21:05.936Z,3.90
2019-04-20T14:23:32.885Z,3.60
2019-04-20T14:26:03.150Z,3.87
2019-04-20T14:28:34.603Z,4.50
2019-04-20T14:31:05.675Z,3.90
2019-04-20T14:33:33.154Z,4.00
2019-04-20T14:36:08.733Z,4.25
2019-04-20T14:38:38.336Z,4.27
2019-04-20T14:41:08.561Z,4.27
2019-04-20T14:43:42.687Z,3.98
2019-04-20T14:46:10.500Z,4.03
2019-04-20T14:48:39.123Z,3.70
2019-04-20T14:51:10.358Z,3.83
2019-04-20T14:53:45.317Z,3.97
2019-04-20T14:56:15.716Z,4.10
2019-04-20T14:58:49.317Z,3.93
2019-04-20T15:01:26.893Z,3.77
2019-04-20T15:04:04.836Z,3.90
2019-04-20T15:06:29.729Z,4.30
2019-04-20T15:08:58.842Z,4.00
2019-04-20T15:11:41.755Z,3.80
2019-04-20T15:14:11.138Z,3.50
2019-04-20T15:16:40.393Z,3.72
2019-04-20T15:19:09.560Z,3.70
2019-04-20T15:21:39.654Z,3.57
2019-04-20T15:24:13.890Z,3.63
2019-04-20T15:26:40.340Z,3.83
2019-04-20T15:29:14.617Z,3.65
2019-04-20T15:31:44.082Z,3.40
2019-04-20T15:34:12.927Z,3.70
2019-04-20T15:36:44.681Z,3.52
2019-04-20T15:39:16.867Z,3.20
2019-04-20T15:41:43.638Z,4.33
2019-04-20T15:44:15.352Z,3.77
2019-04-20T15:46:45.882Z,3.30
2019-04-20T15:52:01.723Z,3.43
2019-04-20T15:54:29.611Z,3.80
2019-04-20T15:57:02.363Z,4.40
2019-04-20T15:59:28.628Z,3.70
2019-04-20T16:01:55.628Z,4.10
2019-04-20T16:04:29.322Z,3.83
2019-04-20T16:06:56.959Z,3.33
2019-04-20T16:09:31.954Z,4.70
2019-04-20T16:12:11.349Z,5.67
2019-04-20T16:14:41.849Z,4.73
2019-04-20T16:17:12.298Z,3.57
2019-04-20T16:19:57.032Z,4.00
2019-04-20T16:22:23.704Z,3.50
2019-04-20T16:24:53.746Z,3.63
2019-04-20T16:27:25.548Z,3.37
2019-04-20T16:29:55.492Z,3.47
2019-04-20T16:32:28.632Z,3.83
2019-04-20T16:35:00.347Z,3.53
2019-04-20T16:37:32.700Z,3.77
2019-04-20T16:40:00.792Z,3.60
2019-04-20T16:42:29.954Z,4.00
2019-04-20T16:45:01.123Z,3.90
2019-04-20T16:50:17.095Z,4.13
2019-04-20T16:52:48.830Z,4.47
2019-04-20T16:55:16.845Z,4.03
2019-04-20T16:57:47.519Z,3.80
2019-04-20T17:00:15.532Z,4.03
2019-04-20T17:02:44.595Z,3.65
2019-04-20T17:05:13.657Z,3.70
2019-04-20T17:07:45.022Z,3.40
2019-04-20T17:10:16.252Z,3.87
2019-04-20T17:12:48.061Z,3.70
2019-04-20T17:15:17.085Z,3.67
2019-04-20T17:17:46.177Z,3.70
2019-04-20T17:20:13.714Z,3.67
2019-04-20T17:25:29.794Z,3.90
2019-04-20T17:32:59.801Z,3.50
2019-04-20T17:35:40.620Z,3.43
2019-04-20T17:45:41.546Z,3.70
2019-04-20T17:50:58.970Z,3.80
2019-04-20T17:58:12.177Z,3.70
2019-04-20T18:28:54.418Z,31.27
2019-04-20T18:31:03.713Z,30.87
2019-04-20T18:33:34.927Z,34.85
2019-04-20T18:36:08.055Z,32.17
2019-04-20T18:38:40.591Z,30.70
2019-04-20T18:41:07.912Z,31.03
2019-04-20T18:43:33.036Z,29.83
2019-04-20T18:46:18.031Z,28.15
2019-04-20T18:48:48.365Z,24.40
2019-04-20T18:50:57.607Z,24.15
2019-04-20T18:53:33.580Z,17.93
2019-04-20T18:55:56.079Z,22.13
2019-04-20T18:58:21.179Z,20.87
2019-04-20T19:00:51.550Z,20.97
2019-04-20T19:03:25.277Z,20.90
2019-04-20T19:05:45.120Z,18.50
2019-04-20T19:08:13.919Z,17.17
2019-04-20T19:10:43.525Z,15.73
2019-04-20T19:13:19.313Z,15.50
2019-04-20T19:15:56.069Z,17.60
2019-04-20T19:18:22.049Z,17.90
2019-04-20T19:20:35.138Z,18.80
2019-04-20T19:23:02.129Z,21.23
2019-04-20T19:25:34.551Z,20.37
2019-04-20T19:27:59.596Z,20.43
2019-04-20T19:30:35.236Z,21.77
2019-04-20T19:33:17.182Z,21.63
2019-04-20T19:35:33.613Z,20.45
2019-04-20T19:38:03.375Z,19.93
2019-04-20T19:40:36.045Z,18.63
2019-04-20T19:43:02.409Z,16.67
2019-04-20T19:45:42.276Z,17.62
2019-04-20T19:48:02.515Z,16.37
2019-04-20T19:50:46.555Z,14.43
2019-04-20T19:53:12.750Z,15.87
2019-04-20T19:55:27.460Z,14.73
2019-04-20T19:57:59.397Z,13.97
2019-04-20T20:00:11.482Z,14.17
2019-04-20T20:02:45.722Z,14.43
2019-04-20T20:05:16.347Z,13.67
2019-04-20T20:10:14.641Z,13.40
2019-04-20T20:12:48.095Z,13.97
2019-04-20T20:15:14.261Z,14.40
2019-04-20T20:17:59.030Z,14.75
2019-04-20T20:20:45.577Z,14.63
2019-04-20T20:22:53.157Z,15.43
2019-04-20T20:25:17.100Z,15.97
2019-04-20T20:27:52.723Z,16.17
2019-04-20T20:30:32.893Z,14.50
2019-04-20T20:32:58.275Z,17.50
2019-04-20T20:35:16.703Z,17.77
2019-04-20T20:37:47.053Z,17.65
2019-04-20T20:40:17.425Z,19.73
2019-04-20T20:42:54.017Z,18.48
2019-04-20T20:45:18.773Z,19.70
2019-04-20T20:47:58.112Z,18.48
2019-04-20T20:50:26.308Z,18.80
2019-04-20T20:52:50.810Z,19.10
2019-04-20T20:55:14.721Z,20.20
2019-04-20T20:57:41.774Z,19.30
2019-04-20T21:00:22.642Z,20.87
2019-04-20T21:02:52.400Z,20.33
2019-04-20T21:05:13.639Z,19.37
2019-04-20T21:07:42.746Z,19.67
2019-04-20T21:10:10.267Z,19.83
2019-04-20T21:15:26.218Z,18.90
2019-04-20T21:18:16.248Z,20.97
2019-04-20T21:20:45.276Z,20.47
2019-04-20T21:23:04.268Z,19.63
2019-04-20T21:25:17.082Z,20.03
2019-04-20T21:27:44.510Z,19.70
2019-04-20T21:30:18.589Z,19.70
2019-04-20T21:32:45.672Z,19.20
2019-04-20T21:35:11.085Z,18.33
2019-04-20T21:37:37.126Z,17.65
2019-04-20T21:40:16.717Z,19.43
2019-04-20T21:42:39.522Z,17.77
2019-04-20T21:45:07.003Z,18.47
2019-04-20T21:47:33.565Z,18.63
2019-04-20T21:50:17.010Z,18.73
2019-04-20T21:52:34.272Z,19.27
2019-04-20T21:54:56.086Z,20.47
2019-04-20T21:57:24.088Z,19.50
2019-04-20T21:59:54.259Z,19.27
2019-04-20T22:02:25.275Z,19.23
2019-04-20T22:04:49.286Z,19.07
2019-04-20T22:07:16.554Z,20.30
2019-04-20T22:09:47.680Z,18.57
2019-04-20T22:12:12.016Z,19.77
2019-04-20T22:14:39.809Z,21.07
2019-04-20T22:17:07.809Z,20.37
2019-04-20T22:19:44.035Z,20.17
2019-04-20T22:22:16.144Z,20.50
2019-04-20T22:24:46.557Z,20.97
2019-04-20T22:27:07.528Z,20.53
2019-04-20T22:29:30.108Z,18.30
2019-04-20T22:32:03.107Z,19.07
2019-04-20T22:34:28.062Z,19.03
2019-04-20T22:36:54.324Z,18.70
2019-04-20T22:39:24.545Z,18.30
2019-04-20T22:41:53.573Z,17.73
2019-04-20T22:44:20.972Z,19.20
2019-04-20T22:46:47.633Z,18.33
2019-04-20T22:49:35.906Z,18.67
2019-04-20T22:51:53.224Z,19.73
2019-04-20T22:54:27.596Z,18.77
2019-04-20T22:56:49.955Z,19.02
2019-04-20T22:59:13.911Z,19.20
2019-04-20T23:01:45.911Z,19.25
2019-04-20T23:04:06.485Z,18.00
2019-04-20T23:06:38.854Z,20.82
2019-04-20T23:09:04.821Z,19.47
2019-04-20T23:11:33.550Z,20.83
2019-04-20T23:14:00.342Z,23.10
2019-04-20T23:16:35.118Z,22.77
2019-04-20T23:18:56.164Z,25.50
2019-04-20T23:21:23.905Z,24.07
2019-04-20T23:23:53.740Z,25.13
2019-04-20T23:26:29.324Z,27.13
2019-04-20T23:28:51.818Z,27.25
2019-04-20T23:31:20.127Z,28.87
2019-04-20T23:33:45.753Z,31.30
2019-04-20T23:36:12.390Z,31.43
2019-04-20T23:38:42.503Z,31.07
2019-04-20T23:41:07.966Z,32.13
2019-04-20T23:43:38.465Z,31.27
2019-04-20T23:46:09.247Z,31.33
2019-04-20T23:48:38.963Z,31.30
2019-04-20T23:51:26.380Z,32.03
2019-04-20T23:53:46.790Z,30.73
2019-04-20T23:55:59.586Z,30.63
2019-04-20T23:58:26.497Z,29.03
